createdAt,value
2019-03-21T00:01:06.139Z,21.47
2019-03-21T00:02:12.015Z,21.47
2019-03-21T00:03:17.535Z,21.46
2019-03-21T00:04:22.997Z,21.47
2019-03-21T00:05:31.892Z,21.46
2019-03-21T00:06:37.064Z,21.46
2019-03-21T00:07:43.497Z,21.46
2019-03-21T00:08:49.641Z,21.44
2019-03-21T00:10:31.598Z,21.43
2019-03-21T00:12:02.890Z,21.44
2019-03-21T00:13:09.669Z,21.46
2019-03-21T00:14:26.532Z,21.44
2019-03-21T00:15:48.969Z,21.46
2019-03-21T00:16:54.701Z,21.43
2019-03-21T00:18:04.786Z,21.43
2019-03-21T00:19:11.365Z,21.43
2019-03-21T00:20:18.737Z,21.44
2019-03-21T00:21:25.165Z,21.41
2019-03-21T00:22:33.467Z,21.41
2019-03-21T00:23:40.247Z,21.43
2019-03-21T00:24:47.065Z,21.41
2019-03-21T00:25:52.756Z,21.44
2019-03-21T00:26:58.483Z,21.41
2019-03-21T00:28:04.565Z,21.43
2019-03-21T00:29:10.526Z,21.43
2019-03-21T00:30:19.673Z,21.41
2019-03-21T00:31:25.306Z,21.40
2019-03-21T00:32:31.416Z,21.39
2019-03-21T00:33:37.433Z,21.40
2019-03-21T00:34:43.026Z,21.40
2019-03-21T00:35:48.767Z,21.40
2019-03-21T00:36:54.218Z,21.39
2019-03-21T00:37:59.786Z,21.40
2019-03-21T00:39:08.176Z,21.41
2019-03-21T00:40:25.037Z,21.41
2019-03-21T00:41:31.806Z,21.41
2019-03-21T00:42:38.446Z,21.40
2019-03-21T00:43:44.776Z,21.41
2019-03-21T00:44:51.286Z,21.37
2019-03-21T00:45:59.053Z,21.41
2019-03-21T00:47:04.968Z,21.40
2019-03-21T00:48:16.016Z,21.40
2019-03-21T00:49:22.366Z,21.39
2019-03-21T00:50:31.137Z,21.40
2019-03-21T00:51:37.106Z,21.40
2019-03-21T00:52:45.006Z,21.40
2019-03-21T00:53:51.737Z,21.40
2019-03-21T00:54:58.465Z,21.39
2019-03-21T00:56:04.147Z,21.39
2019-03-21T00:57:09.635Z,21.41
2019-03-21T00:58:15.195Z,21.40
2019-03-21T00:59:20.896Z,21.37
2019-03-21T01:00:31.027Z,21.39
2019-03-21T01:01:37.065Z,21.40
2019-03-21T01:02:42.687Z,21.40
2019-03-21T01:03:50.287Z,21.39
2019-03-21T01:04:55.984Z,21.39
2019-03-21T01:06:02.014Z,21.40
2019-03-21T01:07:07.547Z,21.39
2019-03-21T01:08:13.307Z,21.39
2019-03-21T01:09:20.940Z,21.40
2019-03-21T01:10:33.495Z,21.37
2019-03-21T01:11:40.257Z,21.37
2019-03-21T01:12:46.568Z,21.37
2019-03-21T01:13:52.727Z,21.36
2019-03-21T01:14:59.378Z,21.37
2019-03-21T01:16:05.917Z,21.37
2019-03-21T01:17:13.528Z,21.37
2019-03-21T01:18:20.318Z,21.39
2019-03-21T01:19:27.381Z,21.36
2019-03-21T01:20:33.408Z,21.39
2019-03-21T01:21:39.466Z,21.39
2019-03-21T01:22:46.604Z,21.36
2019-03-21T01:23:53.396Z,21.34
2019-03-21T01:25:00.008Z,21.34
2019-03-21T01:26:08.975Z,21.37
2019-03-21T01:27:15.906Z,21.36
2019-03-21T01:28:21.448Z,21.34
2019-03-21T01:29:27.150Z,21.34
2019-03-21T01:30:34.269Z,21.36
2019-03-21T01:31:39.998Z,21.36
2019-03-21T01:32:46.845Z,21.34
2019-03-21T01:33:52.359Z,21.37
2019-03-21T01:34:58.690Z,21.34
2019-03-21T01:36:06.509Z,21.36
2019-03-21T01:37:12.012Z,21.37
2019-03-21T01:38:17.793Z,21.36
2019-03-21T01:39:23.344Z,21.36
2019-03-21T01:40:37.366Z,21.36
2019-03-21T01:41:44.039Z,21.34
2019-03-21T01:42:50.318Z,21.37
2019-03-21T01:43:58.218Z,21.37
2019-03-21T01:45:06.287Z,21.36
2019-03-21T01:46:18.851Z,21.34
2019-03-21T01:47:26.940Z,21.34
2019-03-21T01:48:33.600Z,21.36
2019-03-21T01:49:40.099Z,21.36
2019-03-21T01:50:46.603Z,21.34
2019-03-21T01:51:53.387Z,21.34
2019-03-21T01:53:01.569Z,21.36
2019-03-21T01:54:07.608Z,21.37
2019-03-21T01:55:13.610Z,21.34
2019-03-21T01:56:21.109Z,21.36
2019-03-21T01:57:26.777Z,21.36
2019-03-21T01:58:32.702Z,21.34
2019-03-21T01:59:38.899Z,21.34
2019-03-21T02:00:56.680Z,21.34
2019-03-21T02:02:02.439Z,21.36
2019-03-21T02:03:09.022Z,21.34
2019-03-21T02:04:14.882Z,21.33
2019-03-21T02:05:20.589Z,21.34
2019-03-21T02:06:26.502Z,21.33
2019-03-21T02:07:32.019Z,21.34
2019-03-21T02:08:37.818Z,21.31
2019-03-21T02:09:43.579Z,21.34
2019-03-21T02:10:49.749Z,21.34
2019-03-21T02:11:55.589Z,21.31
2019-03-21T02:13:02.770Z,21.33
2019-03-21T02:14:11.009Z,21.34
2019-03-21T02:15:19.289Z,21.31
2019-03-21T02:16:26.416Z,21.34
2019-03-21T02:17:32.546Z,21.33
2019-03-21T02:18:38.149Z,21.34
2019-03-21T02:19:44.256Z,21.33
2019-03-21T02:20:50.779Z,21.31
2019-03-21T02:21:57.230Z,21.31
2019-03-21T02:23:03.839Z,21.33
2019-03-21T02:24:09.764Z,21.33
2019-03-21T02:25:28.143Z,21.33
2019-03-21T02:26:33.787Z,21.31
2019-03-21T02:27:40.330Z,21.31
2019-03-21T02:28:47.342Z,21.31
2019-03-21T02:29:54.815Z,21.30
2019-03-21T02:31:00.407Z,21.30
2019-03-21T02:32:06.530Z,21.31
2019-03-21T02:33:36.389Z,21.30
2019-03-21T02:34:41.929Z,21.29
2019-03-21T02:35:47.411Z,21.31
2019-03-21T02:36:53.250Z,21.33
2019-03-21T02:37:58.950Z,21.30
2019-03-21T02:39:05.014Z,21.31
2019-03-21T02:40:26.777Z,21.30
2019-03-21T02:41:32.494Z,21.30
2019-03-21T02:42:38.742Z,21.31
2019-03-21T02:43:44.960Z,21.31
2019-03-21T02:44:51.457Z,21.31
2019-03-21T02:45:58.325Z,21.30
2019-03-21T02:47:04.982Z,21.29
2019-03-21T02:48:11.347Z,21.30
2019-03-21T02:49:17.165Z,21.30
2019-03-21T02:50:33.490Z,21.31
2019-03-21T02:51:39.530Z,21.31
2019-03-21T02:52:45.852Z,21.30
2019-03-21T02:53:52.943Z,21.31
2019-03-21T02:55:00.772Z,21.30
2019-03-21T02:56:10.854Z,21.29
2019-03-21T02:57:16.319Z,21.30
2019-03-21T02:58:22.655Z,21.30
2019-03-21T02:59:28.608Z,21.30
2019-03-21T03:00:48.317Z,21.29
2019-03-21T03:01:53.940Z,21.29
2019-03-21T03:03:01.061Z,21.29
2019-03-21T03:04:06.899Z,21.29
2019-03-21T03:05:19.973Z,21.30
2019-03-21T03:06:25.512Z,21.29
2019-03-21T03:07:31.460Z,21.30
2019-03-21T03:08:37.683Z,21.30
2019-03-21T03:09:45.491Z,21.27
2019-03-21T03:11:02.464Z,21.30
2019-03-21T03:12:08.482Z,21.29
2019-03-21T03:13:14.376Z,21.29
2019-03-21T03:14:20.653Z,21.30
2019-03-21T03:15:30.900Z,21.29
2019-03-21T03:16:37.132Z,21.29
2019-03-21T03:17:43.381Z,21.29
2019-03-21T03:18:49.861Z,21.29
2019-03-21T03:19:56.411Z,21.29
2019-03-21T03:21:03.190Z,21.29
2019-03-21T03:22:09.953Z,21.27
2019-03-21T03:23:16.382Z,21.29
2019-03-21T03:24:24.884Z,21.29
2019-03-21T03:25:30.575Z,21.27
2019-03-21T03:26:36.780Z,21.24
2019-03-21T03:27:42.567Z,21.26
2019-03-21T03:28:48.847Z,21.26
2019-03-21T03:29:54.934Z,21.27
2019-03-21T03:31:01.169Z,21.27
2019-03-21T03:32:06.797Z,21.26
2019-03-21T03:33:12.654Z,21.29
2019-03-21T03:34:18.749Z,21.27
2019-03-21T03:35:24.453Z,21.27
2019-03-21T03:36:30.224Z,21.26
2019-03-21T03:37:36.414Z,21.26
2019-03-21T03:38:42.134Z,21.29
2019-03-21T03:39:48.173Z,21.27
2019-03-21T03:41:00.982Z,21.29
2019-03-21T03:42:06.595Z,21.29
2019-03-21T03:43:14.416Z,21.27
2019-03-21T03:44:21.982Z,21.29
2019-03-21T03:45:37.746Z,21.29
2019-03-21T03:46:42.867Z,21.26
2019-03-21T03:47:49.015Z,21.27
2019-03-21T03:48:55.843Z,21.27
2019-03-21T03:50:03.194Z,21.27
2019-03-21T03:51:09.335Z,21.27
2019-03-21T03:52:15.497Z,21.27
2019-03-21T03:53:23.286Z,21.26
2019-03-21T03:54:29.374Z,21.26
2019-03-21T03:55:35.126Z,21.27
2019-03-21T03:56:41.588Z,21.27
2019-03-21T03:57:53.125Z,21.26
2019-03-21T03:59:08.561Z,21.26
2019-03-21T04:00:20.825Z,21.26
2019-03-21T04:01:27.062Z,21.27
2019-03-21T04:02:33.432Z,21.27
2019-03-21T04:03:39.165Z,21.24
2019-03-21T04:04:45.784Z,21.27
2019-03-21T04:05:51.483Z,21.26
2019-03-21T04:06:58.914Z,21.27
2019-03-21T04:08:04.813Z,21.24
2019-03-21T04:09:11.222Z,21.26
2019-03-21T04:10:33.345Z,21.24
2019-03-21T04:11:39.145Z,21.26
2019-03-21T04:12:45.144Z,21.22
2019-03-21T04:13:51.296Z,21.26
2019-03-21T04:14:58.965Z,21.24
2019-03-21T04:16:05.084Z,21.24
2019-03-21T04:17:11.642Z,21.24
2019-03-21T04:18:21.352Z,21.26
2019-03-21T04:19:28.159Z,21.24
2019-03-21T04:20:38.507Z,21.24
2019-03-21T04:21:46.731Z,21.26
2019-03-21T04:22:53.580Z,21.26
2019-03-21T04:24:00.105Z,21.24
2019-03-21T04:25:10.335Z,21.27
2019-03-21T04:26:35.921Z,21.24
2019-03-21T04:27:41.497Z,21.24
2019-03-21T04:28:47.134Z,21.26
2019-03-21T04:29:52.807Z,21.26
2019-03-21T04:31:00.232Z,21.24
2019-03-21T04:32:06.106Z,21.24
2019-03-21T04:33:11.615Z,21.24
2019-03-21T04:34:17.935Z,21.23
2019-03-21T04:35:23.996Z,21.24
2019-03-21T04:36:29.804Z,21.23
2019-03-21T04:37:35.357Z,21.24
2019-03-21T04:38:41.025Z,21.24
2019-03-21T04:39:46.895Z,21.23
2019-03-21T04:40:52.626Z,21.23
2019-03-21T04:41:58.745Z,21.24
2019-03-21T04:43:04.934Z,21.24
2019-03-21T04:44:12.674Z,21.24
2019-03-21T04:45:25.077Z,21.24
2019-03-21T04:46:32.855Z,21.23
2019-03-21T04:47:38.667Z,21.24
2019-03-21T04:48:44.597Z,21.23
2019-03-21T04:49:50.874Z,21.23
2019-03-21T04:50:57.212Z,21.22
2019-03-21T04:52:03.051Z,21.23
2019-03-21T04:53:09.186Z,21.24
2019-03-21T04:54:37.906Z,21.22
2019-03-21T04:55:51.260Z,21.24
2019-03-21T04:57:00.625Z,21.24
2019-03-21T04:58:21.955Z,21.23
2019-03-21T05:02:00.435Z,21.23
2019-03-21T05:03:15.356Z,21.24
2019-03-21T05:04:28.986Z,21.22
2019-03-21T05:05:36.516Z,21.23
2019-03-21T05:07:39.856Z,21.22
2019-03-21T05:08:46.031Z,21.22
2019-03-21T05:10:11.596Z,21.20
2019-03-21T05:11:42.167Z,21.22
2019-03-21T05:12:47.965Z,21.23
2019-03-21T05:13:54.033Z,21.23
2019-03-21T05:14:59.826Z,21.23
2019-03-21T05:16:14.900Z,21.20
2019-03-21T05:17:18.506Z,21.20
2019-03-21T05:18:31.339Z,21.20
2019-03-21T05:19:37.726Z,21.20
2019-03-21T05:21:15.722Z,21.23
2019-03-21T05:22:35.845Z,21.22
2019-03-21T05:23:43.256Z,21.20
2019-03-21T05:24:53.634Z,21.20
2019-03-21T05:26:00.345Z,21.20
2019-03-21T05:27:07.300Z,21.22
2019-03-21T05:28:17.145Z,21.23
2019-03-21T05:29:28.081Z,21.22
2019-03-21T05:30:50.446Z,21.22
2019-03-21T05:32:41.757Z,21.22
2019-03-21T05:34:14.397Z,21.22
2019-03-21T05:35:22.435Z,21.20
2019-03-21T05:36:28.974Z,21.22
2019-03-21T05:37:35.134Z,21.20
2019-03-21T05:38:43.023Z,21.23
2019-03-21T05:39:49.757Z,21.22
2019-03-21T05:40:56.479Z,21.20
2019-03-21T05:42:02.956Z,21.20
2019-03-21T05:43:29.387Z,21.20
2019-03-21T05:44:40.202Z,21.23
2019-03-21T05:45:46.177Z,21.23
2019-03-21T05:46:52.386Z,21.22
2019-03-21T05:47:58.933Z,21.22
2019-03-21T05:49:05.107Z,21.20
2019-03-21T05:50:16.033Z,21.20
2019-03-21T05:51:21.677Z,21.20
2019-03-21T05:52:29.507Z,21.22
2019-03-21T05:53:35.387Z,21.20
2019-03-21T05:54:43.255Z,21.22
2019-03-21T05:55:49.207Z,21.22
2019-03-21T05:56:55.135Z,21.23
2019-03-21T05:58:02.409Z,21.22
2019-03-21T05:59:08.347Z,21.22
2019-03-21T06:00:36.807Z,21.23
2019-03-21T06:01:42.490Z,21.20
2019-03-21T06:02:48.087Z,21.22
2019-03-21T06:03:56.818Z,21.23
2019-03-21T06:05:02.317Z,21.20
2019-03-21T06:06:16.951Z,21.23
2019-03-21T06:07:27.387Z,21.22
2019-03-21T06:08:37.468Z,21.26
2019-03-21T06:09:43.509Z,21.23
2019-03-21T06:10:50.368Z,21.24
2019-03-21T06:12:03.381Z,21.24
2019-03-21T06:13:10.715Z,21.26
2019-03-21T06:14:18.828Z,21.24
2019-03-21T06:15:29.424Z,21.26
2019-03-21T06:16:37.949Z,21.24
2019-03-21T06:17:48.585Z,21.24
2019-03-21T06:19:02.025Z,21.27
2019-03-21T06:20:32.605Z,21.24
2019-03-21T06:21:52.668Z,21.24
2019-03-21T06:23:27.577Z,21.24
2019-03-21T06:24:41.670Z,21.23
2019-03-21T06:26:07.239Z,21.23
2019-03-21T06:27:32.905Z,21.26
2019-03-21T06:28:40.178Z,21.29
2019-03-21T06:29:49.516Z,21.24
2019-03-21T06:30:55.159Z,21.27
2019-03-21T06:32:00.948Z,21.26
2019-03-21T06:33:06.758Z,21.26
2019-03-21T06:34:12.716Z,21.26
2019-03-21T06:35:26.068Z,21.26
2019-03-21T06:36:32.229Z,21.27
2019-03-21T06:37:38.156Z,21.27
2019-03-21T06:38:43.938Z,21.30
2019-03-21T06:39:50.357Z,21.26
2019-03-21T06:40:56.268Z,21.27
2019-03-21T06:42:03.266Z,21.26
2019-03-21T06:43:19.727Z,21.30
2019-03-21T06:44:26.429Z,21.30
2019-03-21T06:45:32.169Z,21.30
2019-03-21T06:46:48.554Z,21.30
2019-03-21T06:47:45.776Z,21.31
2019-03-21T06:48:52.326Z,21.29
2019-03-21T06:49:58.650Z,21.30
2019-03-21T06:51:05.348Z,21.31
2019-03-21T06:52:11.881Z,21.27
2019-03-21T06:53:18.061Z,21.29
2019-03-21T06:54:24.950Z,21.27
2019-03-21T06:55:31.515Z,21.29
2019-03-21T06:56:38.668Z,21.30
2019-03-21T06:57:44.030Z,21.27
2019-03-21T06:58:49.458Z,21.29
2019-03-21T06:59:54.910Z,21.27
2019-03-21T07:01:00.580Z,21.29
2019-03-21T07:02:06.090Z,21.27
2019-03-21T07:03:12.489Z,21.30
2019-03-21T07:04:21.780Z,21.29
2019-03-21T07:05:29.153Z,21.23
2019-03-21T07:06:34.802Z,21.24
2019-03-21T07:07:40.659Z,21.27
2019-03-21T07:08:46.121Z,21.26
2019-03-21T07:09:53.626Z,21.27
2019-03-21T07:11:00.931Z,21.24
2019-03-21T07:12:06.999Z,21.27
2019-03-21T07:13:14.211Z,21.26
2019-03-21T07:14:19.826Z,21.27
2019-03-21T07:15:26.108Z,21.27
2019-03-21T07:16:32.491Z,21.27
2019-03-21T07:17:39.052Z,21.27
2019-03-21T07:18:45.381Z,21.29
2019-03-21T07:19:51.911Z,21.27
2019-03-21T07:21:01.019Z,21.29
2019-03-21T07:22:06.580Z,21.30
2019-03-21T07:23:13.142Z,21.29
2019-03-21T07:24:19.662Z,21.29
2019-03-21T07:25:25.885Z,21.30
2019-03-21T07:26:34.560Z,21.27
2019-03-21T07:27:40.464Z,21.27
2019-03-21T07:28:45.883Z,21.27
2019-03-21T07:29:53.254Z,21.27
2019-03-21T07:30:58.931Z,21.27
2019-03-21T07:32:04.432Z,21.27
2019-03-21T07:33:10.003Z,21.29
2019-03-21T07:34:15.583Z,21.26
2019-03-21T07:35:21.210Z,21.27
2019-03-21T07:36:26.933Z,21.27
2019-03-21T07:37:32.408Z,21.26
2019-03-21T07:38:37.925Z,21.27
2019-03-21T07:39:43.442Z,21.29
2019-03-21T07:40:49.342Z,21.26
2019-03-21T07:41:55.492Z,21.27
2019-03-21T07:43:01.294Z,21.27
2019-03-21T07:44:07.748Z,21.29
2019-03-21T07:45:14.498Z,21.30
2019-03-21T07:46:20.415Z,21.29
2019-03-21T07:47:26.342Z,21.27
2019-03-21T07:48:32.380Z,21.30
2019-03-21T07:49:38.953Z,21.27
2019-03-21T07:50:45.702Z,21.30
2019-03-21T07:51:52.075Z,21.29
2019-03-21T07:52:58.793Z,21.27
2019-03-21T07:54:05.348Z,21.30
2019-03-21T07:55:12.367Z,21.27
2019-03-21T07:56:19.163Z,21.30
2019-03-21T07:57:25.900Z,21.30
2019-03-21T07:58:31.347Z,21.27
2019-03-21T07:59:37.049Z,21.30
2019-03-21T08:00:42.518Z,21.31
2019-03-21T08:01:48.037Z,21.30
2019-03-21T08:02:53.583Z,21.30
2019-03-21T08:03:58.995Z,21.27
2019-03-21T08:05:05.343Z,21.30
2019-03-21T08:06:12.332Z,21.33
2019-03-21T08:07:18.852Z,21.31
2019-03-21T08:08:24.463Z,21.29
2019-03-21T08:09:29.976Z,21.33
2019-03-21T08:10:37.904Z,21.29
2019-03-21T08:11:44.840Z,21.31
2019-03-21T08:12:51.835Z,21.30
2019-03-21T08:13:58.383Z,21.31
2019-03-21T08:15:05.515Z,21.27
2019-03-21T08:16:11.037Z,21.30
2019-03-21T08:17:17.674Z,21.34
2019-03-21T08:18:24.801Z,21.31
2019-03-21T08:19:31.153Z,21.30
2019-03-21T08:20:37.543Z,21.30
2019-03-21T08:21:44.545Z,21.30
2019-03-21T08:22:51.122Z,21.30
2019-03-21T08:23:57.272Z,21.26
2019-03-21T08:25:03.333Z,21.26
2019-03-21T08:26:09.944Z,21.22
2019-03-21T08:27:16.171Z,21.19
2019-03-21T08:28:21.774Z,21.19
2019-03-21T08:29:27.494Z,21.16
2019-03-21T08:30:36.150Z,21.16
2019-03-21T08:31:41.550Z,21.17
2019-03-21T08:32:47.163Z,21.20
2019-03-21T08:33:54.373Z,21.22
2019-03-21T08:35:00.374Z,21.27
2019-03-21T08:36:26.804Z,21.36
2019-03-21T08:37:33.821Z,21.47
2019-03-21T08:38:39.404Z,21.50
2019-03-21T08:39:44.959Z,21.57
2019-03-21T08:40:52.802Z,21.64
2019-03-21T08:41:59.474Z,21.67
2019-03-21T08:43:05.145Z,21.69
2019-03-21T08:44:10.964Z,21.75
2019-03-21T08:45:17.204Z,21.77
2019-03-21T08:46:22.788Z,21.79
2019-03-21T08:47:29.418Z,21.85
2019-03-21T08:48:36.435Z,21.88
2019-03-21T08:49:42.185Z,21.94
2019-03-21T08:50:48.304Z,21.96
2019-03-21T08:51:53.762Z,22.01
2019-03-21T08:52:59.797Z,22.05
2019-03-21T08:54:05.687Z,22.09
2019-03-21T08:55:11.452Z,22.11
2019-03-21T08:56:18.026Z,22.16
2019-03-21T08:57:23.502Z,22.17
2019-03-21T08:58:29.093Z,22.22
2019-03-21T08:59:35.054Z,22.23
2019-03-21T09:00:40.570Z,22.23
2019-03-21T09:01:47.786Z,22.27
2019-03-21T09:02:53.315Z,22.27
2019-03-21T09:03:58.957Z,22.27
2019-03-21T09:05:05.978Z,22.29
2019-03-21T09:07:08.106Z,22.30
2019-03-21T09:08:13.553Z,22.32
2019-03-21T09:09:19.422Z,22.34
2019-03-21T09:10:24.945Z,22.33
2019-03-21T09:11:30.250Z,22.34
2019-03-21T09:12:35.767Z,22.34
2019-03-21T09:13:41.322Z,22.33
2019-03-21T09:14:47.189Z,22.34
2019-03-21T09:15:52.574Z,22.30
2019-03-21T09:16:58.537Z,22.27
2019-03-21T09:18:04.246Z,22.26
2019-03-21T09:19:09.722Z,22.26
2019-03-21T09:20:15.377Z,22.24
2019-03-21T09:21:21.450Z,22.24
2019-03-21T09:22:27.565Z,22.24
2019-03-21T09:23:34.336Z,22.24
2019-03-21T09:24:40.226Z,22.23
2019-03-21T09:25:46.486Z,22.29
2019-03-21T09:26:54.345Z,22.29
2019-03-21T09:28:02.861Z,22.32
2019-03-21T09:29:08.069Z,22.34
2019-03-21T09:30:15.757Z,22.39
2019-03-21T09:31:21.539Z,22.41
2019-03-21T09:32:27.051Z,22.46
2019-03-21T09:33:32.563Z,22.49
2019-03-21T09:34:37.936Z,22.53
2019-03-21T09:35:43.628Z,22.56
2019-03-21T09:36:49.126Z,22.56
2019-03-21T09:37:54.586Z,22.60
2019-03-21T09:39:00.012Z,22.63
2019-03-21T09:40:09.881Z,22.67
2019-03-21T09:41:16.513Z,22.71
2019-03-21T09:42:23.846Z,22.72
2019-03-21T09:43:29.456Z,22.75
2019-03-21T09:44:35.785Z,22.81
2019-03-21T09:45:41.841Z,22.85
2019-03-21T09:46:51.088Z,22.87
2019-03-21T09:47:55.017Z,22.92
2019-03-21T09:49:00.887Z,22.95
2019-03-21T09:50:08.086Z,22.98
2019-03-21T09:51:13.762Z,23.03
2019-03-21T09:52:19.447Z,23.03
2019-03-21T09:53:25.518Z,23.09
2019-03-21T09:54:32.558Z,23.11
2019-03-21T09:55:39.516Z,23.14
2019-03-21T09:56:47.207Z,23.14
2019-03-21T09:57:53.187Z,23.14
2019-03-21T09:58:58.647Z,23.16
2019-03-21T10:00:09.056Z,23.14
2019-03-21T10:01:14.545Z,23.15
2019-03-21T10:02:20.100Z,23.18
2019-03-21T10:03:25.637Z,23.19
2019-03-21T10:04:31.025Z,23.22
2019-03-21T10:05:36.497Z,23.25
2019-03-21T10:06:42.083Z,23.27
2019-03-21T10:07:47.538Z,23.29
2019-03-21T10:08:53.295Z,23.30
2019-03-21T10:09:58.838Z,23.36
2019-03-21T10:11:05.192Z,23.34
2019-03-21T10:12:10.937Z,23.36
2019-03-21T10:13:16.493Z,23.39
2019-03-21T10:14:23.038Z,23.39
2019-03-21T10:15:29.187Z,23.40
2019-03-21T10:16:35.408Z,23.43
2019-03-21T10:17:41.358Z,23.42
2019-03-21T10:18:47.177Z,23.46
2019-03-21T10:19:52.997Z,23.46
2019-03-21T10:20:58.498Z,23.46
2019-03-21T10:22:05.073Z,23.46
2019-03-21T10:23:11.628Z,23.44
2019-03-21T10:24:17.065Z,23.47
2019-03-21T10:25:22.909Z,23.49
2019-03-21T10:26:29.387Z,23.50
2019-03-21T10:27:36.001Z,23.54
2019-03-21T10:28:41.898Z,23.54
2019-03-21T10:29:47.310Z,23.56
2019-03-21T10:30:52.875Z,23.56
2019-03-21T10:31:58.838Z,23.58
2019-03-21T10:33:05.966Z,23.58
2019-03-21T10:34:11.585Z,23.61
2019-03-21T10:35:17.108Z,23.63
2019-03-21T10:36:22.628Z,23.61
2019-03-21T10:37:28.123Z,23.61
2019-03-21T10:38:33.612Z,23.63
2019-03-21T10:39:39.219Z,23.64
2019-03-21T10:40:45.438Z,23.64
2019-03-21T10:41:51.749Z,23.65
2019-03-21T10:42:57.803Z,23.68
2019-03-21T10:44:03.871Z,23.68
2019-03-21T10:45:10.028Z,23.68
2019-03-21T10:46:15.567Z,23.71
2019-03-21T10:47:21.850Z,23.70
2019-03-21T10:48:28.399Z,23.70
2019-03-21T10:49:36.160Z,23.73
2019-03-21T10:50:43.432Z,23.71
2019-03-21T10:51:54.784Z,23.65
2019-03-21T10:52:56.209Z,23.60
2019-03-21T10:54:01.799Z,23.60
2019-03-21T10:55:07.836Z,23.54
2019-03-21T10:56:15.803Z,23.49
2019-03-21T10:57:21.939Z,23.47
2019-03-21T10:58:29.320Z,23.43
2019-03-21T10:59:34.790Z,23.39
2019-03-21T11:00:40.372Z,23.36
2019-03-21T11:01:45.887Z,23.34
2019-03-21T11:02:51.329Z,23.32
2019-03-21T11:03:56.929Z,23.32
2019-03-21T11:05:02.672Z,23.30
2019-03-21T11:06:08.129Z,23.27
2019-03-21T11:07:12.160Z,23.26
2019-03-21T11:08:17.715Z,23.29
2019-03-21T11:09:23.195Z,23.29
2019-03-21T11:10:28.730Z,23.29
2019-03-21T11:11:34.489Z,23.27
2019-03-21T11:12:40.637Z,23.27
2019-03-21T11:13:46.143Z,23.26
2019-03-21T11:14:51.551Z,23.29
2019-03-21T11:15:57.090Z,23.27
2019-03-21T11:17:02.547Z,23.27
2019-03-21T11:18:08.175Z,23.27
2019-03-21T11:19:13.736Z,23.29
2019-03-21T11:20:28.796Z,23.29
2019-03-21T11:21:34.323Z,23.30
2019-03-21T11:22:39.891Z,23.33
2019-03-21T11:23:45.390Z,23.33
2019-03-21T11:24:50.946Z,23.33
2019-03-21T11:25:56.368Z,23.36
2019-03-21T11:27:02.064Z,23.36
2019-03-21T11:28:07.590Z,23.34
2019-03-21T11:29:12.960Z,23.34
2019-03-21T11:30:23.050Z,23.33
2019-03-21T11:31:28.688Z,23.29
2019-03-21T11:32:34.273Z,23.27
2019-03-21T11:33:39.776Z,23.22
2019-03-21T11:34:45.153Z,23.22
2019-03-21T11:35:50.643Z,23.19
2019-03-21T11:36:56.011Z,23.18
2019-03-21T11:38:01.634Z,23.16
2019-03-21T11:39:09.113Z,23.14
2019-03-21T11:40:15.191Z,23.11
2019-03-21T11:41:20.648Z,23.08
2019-03-21T11:42:26.845Z,23.06
2019-03-21T11:43:33.000Z,23.03
2019-03-21T11:44:38.702Z,23.05
2019-03-21T11:45:47.639Z,23.05
2019-03-21T11:46:52.671Z,23.08
2019-03-21T11:47:59.811Z,23.06
2019-03-21T11:49:06.280Z,23.06
2019-03-21T11:50:13.197Z,23.08
2019-03-21T11:51:18.675Z,23.09
2019-03-21T11:52:25.366Z,23.11
2019-03-21T11:53:31.195Z,23.12
2019-03-21T11:54:36.757Z,23.12
2019-03-21T11:55:42.992Z,23.14
2019-03-21T11:56:49.113Z,23.16
2019-03-21T11:57:54.601Z,23.14
2019-03-21T11:59:00.256Z,23.16
2019-03-21T12:00:09.987Z,23.18
2019-03-21T12:01:15.512Z,23.18
2019-03-21T12:02:27.133Z,23.16
2019-03-21T12:03:28.373Z,23.18
2019-03-21T12:04:33.859Z,23.19
2019-03-21T12:05:39.383Z,23.19
2019-03-21T12:06:46.321Z,23.18
2019-03-21T12:07:51.926Z,23.21
2019-03-21T12:08:57.354Z,23.22
2019-03-21T12:10:02.857Z,23.19
2019-03-21T12:11:08.247Z,23.22
2019-03-21T12:12:13.653Z,23.25
2019-03-21T12:13:19.483Z,23.22
2019-03-21T12:14:25.258Z,23.25
2019-03-21T12:15:30.977Z,23.26
2019-03-21T12:16:36.476Z,23.25
2019-03-21T12:17:43.012Z,23.26
2019-03-21T12:19:33.694Z,23.27
2019-03-21T12:20:41.592Z,23.27
2019-03-21T12:21:47.722Z,23.27
2019-03-21T12:22:53.545Z,23.30
2019-03-21T12:24:00.352Z,23.30
2019-03-21T12:25:07.973Z,23.30
2019-03-21T12:26:13.894Z,23.29
2019-03-21T12:27:20.222Z,23.26
2019-03-21T12:28:26.410Z,23.32
2019-03-21T12:29:31.979Z,23.30
2019-03-21T12:30:40.163Z,23.34
2019-03-21T12:31:46.816Z,23.34
2019-03-21T12:32:52.389Z,23.40
2019-03-21T12:33:59.246Z,23.40
2019-03-21T12:35:07.223Z,23.42
2019-03-21T12:36:12.632Z,23.47
2019-03-21T12:37:18.074Z,23.50
2019-03-21T12:38:23.439Z,23.57
2019-03-21T12:39:29.224Z,23.57
2019-03-21T12:40:34.698Z,23.61
2019-03-21T12:41:40.057Z,23.64
2019-03-21T12:42:45.539Z,23.68
2019-03-21T12:43:50.927Z,23.71
2019-03-21T12:44:56.539Z,23.74
2019-03-21T12:46:01.949Z,23.77
2019-03-21T12:47:07.481Z,23.78
2019-03-21T12:48:12.994Z,23.80
2019-03-21T12:49:18.653Z,23.84
2019-03-21T12:50:24.195Z,23.87
2019-03-21T12:51:29.878Z,23.87
2019-03-21T12:52:41.512Z,23.87
2019-03-21T12:53:44.046Z,23.88
2019-03-21T12:54:49.640Z,23.92
2019-03-21T12:55:55.639Z,23.89
2019-03-21T12:57:01.886Z,23.92
2019-03-21T12:58:07.367Z,23.94
2019-03-21T12:59:14.495Z,23.95
2019-03-21T13:00:32.890Z,23.97
2019-03-21T13:01:37.824Z,23.98
2019-03-21T13:02:43.943Z,23.99
2019-03-21T13:03:49.457Z,24.01
2019-03-21T13:04:55.163Z,24.01
2019-03-21T13:06:00.805Z,23.97
2019-03-21T13:07:06.214Z,23.95
2019-03-21T13:08:11.738Z,23.95
2019-03-21T13:09:18.993Z,23.95
2019-03-21T13:10:24.394Z,23.95
2019-03-21T13:11:30.425Z,23.95
2019-03-21T13:12:35.963Z,23.97
2019-03-21T13:13:42.275Z,23.98
2019-03-21T13:14:49.744Z,23.98
2019-03-21T13:15:55.285Z,24.01
2019-03-21T13:17:01.413Z,24.07
2019-03-21T13:18:07.369Z,24.09
2019-03-21T13:19:12.978Z,24.11
2019-03-21T13:20:19.843Z,24.16
2019-03-21T13:21:25.889Z,24.15
2019-03-21T13:22:31.795Z,24.22
2019-03-21T13:23:40.135Z,24.22
2019-03-21T13:24:45.593Z,24.25
2019-03-21T13:25:51.323Z,24.27
2019-03-21T13:26:56.728Z,24.30
2019-03-21T13:28:02.835Z,24.30
2019-03-21T13:29:08.373Z,24.32
2019-03-21T13:30:14.314Z,24.33
2019-03-21T13:31:19.775Z,24.36
2019-03-21T13:32:25.176Z,24.35
2019-03-21T13:33:30.737Z,24.30
2019-03-21T13:34:36.196Z,24.32
2019-03-21T13:35:41.737Z,24.30
2019-03-21T13:36:47.315Z,24.26
2019-03-21T13:37:54.055Z,24.25
2019-03-21T13:39:01.471Z,24.20
2019-03-21T13:40:10.307Z,24.15
2019-03-21T13:41:15.767Z,24.12
2019-03-21T13:42:22.235Z,24.08
2019-03-21T13:43:28.356Z,24.05
2019-03-21T13:44:34.186Z,24.05
2019-03-21T13:45:40.565Z,24.04
2019-03-21T13:46:47.456Z,24.02
2019-03-21T13:47:53.118Z,23.99
2019-03-21T13:48:58.634Z,23.99
2019-03-21T13:50:05.251Z,23.99
2019-03-21T13:51:53.481Z,23.97
2019-03-21T13:53:04.640Z,23.97
2019-03-21T13:54:08.658Z,23.94
2019-03-21T13:55:13.596Z,23.94
2019-03-21T13:56:19.185Z,23.92
2019-03-21T13:57:25.318Z,23.91
2019-03-21T13:58:30.789Z,23.87
2019-03-21T13:59:36.180Z,23.84
2019-03-21T14:00:41.666Z,23.81
2019-03-21T14:01:47.100Z,23.80
2019-03-21T14:02:52.514Z,23.78
2019-03-21T14:03:57.939Z,23.73
2019-03-21T14:05:03.549Z,23.74
2019-03-21T14:06:09.083Z,23.74
2019-03-21T14:07:14.796Z,23.73
2019-03-21T14:08:20.329Z,23.70
2019-03-21T14:09:25.988Z,23.70
2019-03-21T14:10:33.017Z,23.65
2019-03-21T14:11:38.777Z,23.65
2019-03-21T14:12:44.127Z,23.64
2019-03-21T14:13:49.640Z,23.64
2019-03-21T14:14:55.336Z,23.60
2019-03-21T14:16:02.857Z,23.64
2019-03-21T14:17:09.476Z,23.65
2019-03-21T14:18:14.968Z,23.64
2019-03-21T14:19:21.599Z,23.64
2019-03-21T14:20:26.990Z,23.65
2019-03-21T14:21:33.266Z,23.63
2019-03-21T14:22:41.004Z,23.63
2019-03-21T14:23:55.387Z,23.60
2019-03-21T14:25:07.415Z,23.61
2019-03-21T14:26:15.852Z,23.60
2019-03-21T14:27:37.807Z,23.58
2019-03-21T14:28:57.751Z,23.56
2019-03-21T14:30:03.467Z,23.56
2019-03-21T14:31:09.135Z,23.53
2019-03-21T14:32:16.086Z,23.53
2019-03-21T14:33:33.464Z,23.51
2019-03-21T14:34:39.042Z,23.53